Time;durP1;ratioP1;P1;durP2;ratioP2;P2;SDS_P1;SDS_P2;PMS_P1;PMS_P2;Temp;Humidity;BMP_temperature;BMP_pressure;BME280_temperature;BME280_humidity;BME280_pressure;Samples;Min_cycle;Max_cycle;Signal;HPM_P1;HPM_P2
2022/08/23 00:00:11;;;;;;;;;;;;;;;25.70;53.56;99685.69;2031383;29;19951;-59
2022/08/23 00:01:13;;;;;;;;;;;;;;;25.70;53.42;99681.06;2034904;29;20030;-60
2022/08/23 00:02:13;;;;;;;;;;;;;;;25.70;53.68;99683.81;2033501;29;19922;-60
2022/08/23 00:03:13;;;;;;;;;;;;;;;25.70;53.35;99685.69;2034435;29;19918;-60
2022/08/23 00:04:20;;;;;;;;;;;;;;;25.69;53.44;99684.00;2033542;29;20067;-59
2022/08/23 00:05:21;;;;;;;;;;;;;;;25.69;53.52;99684.00;2033730;29;19911;-60
2022/08/23 00:06:21;;;;;;;;;;;;;;;25.69;53.54;99684.00;2033643;29;19918;-60
2022/08/23 00:07:22;;;;;;;;;;;;;;;25.68;53.50;99680.41;2024469;29;20618;-60
2022/08/23 00:08:23;;;;;;;;;;;;;;;25.69;53.75;99686.75;2024819;29;19922;-59
2022/08/23 00:09:24;;;;;;;;;;;;;;;25.69;53.46;99684.00;2034566;29;19998;-59
2022/08/23 00:10:24;;;;;;;;;;;;;;;25.69;53.48;99681.25;2033936;29;19973;-60
2022/08/23 00:11:25;;;;;;;;;;;;;;;25.67;53.69;99679.56;2034574;29;20228;-60
2022/08/23 00:12:25;;;;;;;;;;;;;;;25.68;53.66;99683.16;2034564;29;19962;-60
2022/08/23 00:13:26;;;;;;;;;;;;;;;25.69;53.69;99678.47;2034369;29;19929;-60
2022/08/23 00:14:28;;;;;;;;;;;;;;;25.69;53.75;99678.47;2035149;29;20014;-60
2022/08/23 00:15:28;;;;;;;;;;;;;;;25.68;53.57;99683.16;2039201;29;19950;-59
2022/08/23 00:16:29;;;;;;;;;;;;;;;25.69;53.64;99684.84;2032306;29;19911;-59
2022/08/23 00:17:29;;;;;;;;;;;;;;;25.69;53.67;99675.72;2034323;29;19919;-59
2022/08/23 00:18:29;;;;;;;;;;;;;;;25.69;53.40;99684.84;2034654;29;19919;-59
2022/08/23 00:19:30;;;;;;;;;;;;;;;25.69;53.33;99684.00;2034134;29;19919;-59
2022/08/23 00:20:31;;;;;;;;;;;;;;;25.69;53.35;99689.53;2024851;29;19930;-60
2022/08/23 00:21:31;;;;;;;;;;;;;;;25.70;53.34;99685.69;2019653;29;20489;-60
2022/08/23 00:22:31;;;;;;;;;;;;;;;25.70;53.35;99685.69;2029017;29;19916;-60
2022/08/23 00:23:31;;;;;;;;;;;;;;;25.70;53.46;99685.69;2034322;29;19945;-60
2022/08/23 00:24:32;;;;;;;;;;;;;;;25.70;53.45;99691.22;2029293;29;19919;-60
2022/08/23 00:25:32;;;;;;;;;;;;;;;25.69;53.49;99684.84;2034851;29;20428;-60
2022/08/23 00:26:48;;;;;;;;;;;;;;;25.70;53.40;99685.69;2032618;29;19926;-60
2022/08/23 00:27:48;;;;;;;;;;;;;;;25.70;53.35;99696.75;2034237;29;19929;-60
2022/08/23 00:28:49;;;;;;;;;;;;;;;25.69;53.44;99684.00;2033915;29;19945;-60
2022/08/23 00:29:51;;;;;;;;;;;;;;;25.70;53.43;99691.22;2034325;29;19970;-60
2022/08/23 00:30:51;;;;;;;;;;;;;;;25.70;53.43;99691.22;2033470;29;19955;-60
2022/08/23 00:31:52;;;;;;;;;;;;;;;25.69;53.26;99686.75;2039484;29;19918;-60
2022/08/23 00:32:52;;;;;;;;;;;;;;;25.69;53.18;99687.59;2041767;28;20336;-60
2022/08/23 00:33:53;;;;;;;;;;;;;;;25.67;53.44;99682.31;2027174;29;19959;-59
2022/08/23 00:34:53;;;;;;;;;;;;;;;25.69;53.34;99684.00;2031489;29;20463;-60
2022/08/23 00:35:54;;;;;;;;;;;;;;;25.69;53.39;99689.53;2035891;29;20565;-60
2022/08/23 00:36:54;;;;;;;;;;;;;;;25.69;53.16;99684.00;2036015;29;19922;-60
2022/08/23 00:37:57;;;;;;;;;;;;;;;25.69;53.26;99681.25;2028645;29;19919;-60
2022/08/23 00:38:57;;;;;;;;;;;;;;;25.67;53.30;99676.78;2027307;29;20408;-60
2022/08/23 00:39:58;;;;;;;;;;;;;;;25.67;53.33;99679.56;2029858;29;20037;-59
2022/08/23 00:40:59;;;;;;;;;;;;;;;25.68;53.40;99683.16;2032608;29;19958;-59
2022/08/23 00:47:38;;;;;;;;;;;;;;;25.68;53.52;99677.63;2033222;29;19950;-60
2022/08/23 00:47:50;;;;;;;;;;;;;;;25.64;53.59;99671.66;2040667;29;20012;-59
2022/08/23 00:48:50;;;;;;;;;;;;;;;25.65;53.42;99667.00;2039587;29;19919;-60
2022/08/23 00:49:54;;;;;;;;;;;;;;;25.64;53.50;99668.91;2036014;29;19930;-59
2022/08/23 00:50:59;;;;;;;;;;;;;;;25.65;53.57;99673.38;2033729;29;20425;-59
2022/08/23 00:52:02;;;;;;;;;;;;;;;25.65;53.30;99673.38;2041095;29;19919;-60
2022/08/23 00:53:03;;;;;;;;;;;;;;;25.64;53.30;99671.66;2028678;29;19919;-60
2022/08/23 00:54:03;;;;;;;;;;;;;;;25.64;53.46;99666.13;2033872;29;19934;-60
2022/08/23 00:55:05;;;;;;;;;;;;;;;25.65;53.23;99669.78;2035241;29;19927;-59
2022/08/23 00:56:07;;;;;;;;;;;;;;;25.65;53.43;99673.38;2036547;29;19919;-59
2022/08/23 00:57:10;;;;;;;;;;;;;;;25.64;53.50;99666.13;2033954;29;19919;-59
2022/08/23 00:58:12;;;;;;;;;;;;;;;25.65;53.29;99665.09;2028180;29;19919;-59
2022/08/23 00:59:12;;;;;;;;;;;;;;;25.65;53.44;99664.25;2034504;29;20223;-60
2022/08/23 01:00:13;;;;;;;;;;;;;;;25.66;53.39;99674.22;2035283;29;20661;-60
2022/08/23 01:01:14;;;;;;;;;;;;;;;25.65;53.37;99672.53;2028175;29;19970;-59
2022/08/23 01:02:14;;;;;;;;;;;;;;;25.65;53.27;99673.38;2031751;29;19922;-60
2022/08/23 01:03:15;;;;;;;;;;;;;;;25.64;53.43;99679.94;2026112;29;20120;-60
2022/08/23 01:04:16;;;;;;;;;;;;;;;25.65;53.09;99673.38;2020820;29;19915;-60
2022/08/23 01:05:16;;;;;;;;;;;;;;;25.65;53.13;99670.63;2033282;29;19919;-60
2022/08/23 01:06:31;;;;;;;;;;;;;;;25.66;53.08;99669.53;2035878;29;19919;-59
2022/08/23 01:07:45;;;;;;;;;;;;;;;25.65;53.34;99673.38;2030411;29;19919;-60
2022/08/23 01:08:47;;;;;;;;;;;;;;;25.66;53.06;99675.06;2034246;29;19915;-59
2022/08/23 01:09:50;;;;;;;;;;;;;;;25.66;53.29;99672.31;2028390;29;19914;-60
2022/08/23 01:11:00;;;;;;;;;;;;;;;25.65;52.98;99667.00;2030991;29;19962;-59
2022/08/23 01:12:06;;;;;;;;;;;;;;;25.65;53.13;99667.84;2032838;29;19918;-59
2022/08/23 01:13:10;;;;;;;;;;;;;;;25.66;53.01;99663.19;2035496;29;20021;-60
2022/08/23 01:14:20;;;;;;;;;;;;;;;25.65;53.12;99667.84;2026477;29;19966;-59
2022/08/23 01:15:25;;;;;;;;;;;;;;;25.65;53.11;99662.34;2028579;29;19971;-60
2022/08/23 01:16:47;;;;;;;;;;;;;;;25.66;53.29;99663.19;2034155;29;19957;-60
2022/08/23 01:17:56;;;;;;;;;;;;;;;25.65;53.01;99665.09;2027777;29;20232;-59
2022/08/23 01:18:56;;;;;;;;;;;;;;;25.65;52.90;99662.34;2034794;29;19918;-59
2022/08/23 01:19:59;;;;;;;;;;;;;;;25.65;53.14;99662.34;2038729;29;20106;-60
2022/08/23 01:21:08;;;;;;;;;;;;;;;25.65;53.01;99662.34;2042810;29;19922;-59
2022/08/23 01:22:33;;;;;;;;;;;;;;;25.64;53.25;99663.38;2035752;29;19930;-59
2022/08/23 01:23:33;;;;;;;;;;;;;;;25.65;53.29;99667.00;2040874;29;20138;-59
2022/08/23 01:24:33;;;;;;;;;;;;;;;25.65;53.38;99667.00;2041573;29;20479;-59
2022/08/23 01:25:35;;;;;;;;;;;;;;;25.64;53.37;99665.28;2035492;29;19923;-60
2022/08/23 01:26:36;;;;;;;;;;;;;;;25.63;53.31;99667.19;2022351;29;19955;-59
2022/08/23 01:27:37;;;;;;;;;;;;;;;25.63;53.37;99664.44;2019371;29;20401;-59
2022/08/23 01:28:38;;;;;;;;;;;;;;;25.63;53.37;99664.44;2028370;29;20672;-60
2022/08/23 01:29:39;;;;;;;;;;;;;;;25.63;53.16;99669.97;2032116;29;20475;-60
2022/08/23 01:30:42;;;;;;;;;;;;;;;25.63;53.37;99663.59;2043532;29;19927;-60
2022/08/23 01:31:42;;;;;;;;;;;;;;;25.62;53.30;99668.25;2036156;29;19965;-60
2022/08/23 01:32:52;;;;;;;;;;;;;;;25.62;53.43;99662.72;2035773;29;19922;-60
2022/08/23 01:34:13;;;;;;;;;;;;;;;25.61;53.19;99666.56;2035458;29;19925;-60
2022/08/23 01:35:14;;;;;;;;;;;;;;;25.61;53.38;99666.56;2028152;29;20279;-60
2022/08/23 01:36:15;;;;;;;;;;;;;;;25.62;53.16;99667.41;2023588;29;19942;-60
2022/08/23 01:37:15;;;;;;;;;;;;;;;25.62;53.34;99662.72;2026981;29;19953;-59
2022/08/23 01:38:16;;;;;;;;;;;;;;;25.62;53.26;99672.91;2034223;29;19919;-59
2022/08/23 01:39:16;;;;;;;;;;;;;;;25.62;53.30;99659.13;2033943;29;20579;-60
2022/08/23 01:40:16;;;;;;;;;;;;;;;25.61;53.07;99669.31;2035279;29;19919;-60
2022/08/23 01:41:17;;;;;;;;;;;;;;;25.62;53.08;99664.63;2034578;29;19923;-59
2022/08/23 01:42:17;;;;;;;;;;;;;;;25.62;53.32;99664.63;2034130;29;20239;-59
2022/08/23 01:43:18;;;;;;;;;;;;;;;25.62;53.25;99661.88;2027347;29;20193;-60
2022/08/23 01:44:19;;;;;;;;;;;;;;;25.62;53.23;99665.47;2025538;29;20058;-60
2022/08/23 01:45:19;;;;;;;;;;;;;;;25.62;53.18;99667.41;2035535;29;19982;-60
2022/08/23 01:46:21;;;;;;;;;;;;;;;25.62;53.02;99668.25;2032960;29;19919;-60
2022/08/23 01:47:21;;;;;;;;;;;;;;;25.62;53.01;99661.88;2035074;29;20021;-60
2022/08/23 01:48:22;;;;;;;;;;;;;;;25.62;53.21;99662.72;2042264;29;19919;-60
2022/08/23 01:49:22;;;;;;;;;;;;;;;25.63;53.23;99669.97;2038252;29;19954;-60
2022/08/23 01:50:23;;;;;;;;;;;;;;;25.63;53.01;99675.47;2038644;29;19925;-60
2022/08/23 01:51:24;;;;;;;;;;;;;;;25.63;52.87;99663.59;2037706;29;20565;-60
2022/08/23 01:52:24;;;;;;;;;;;;;;;25.63;53.14;99669.13;2034582;29;19918;-60
2022/08/23 01:53:25;;;;;;;;;;;;;;;25.63;52.93;99669.13;2034905;29;19954;-61
2022/08/23 01:54:25;;;;;;;;;;;;;;;25.63;53.06;99667.19;2026803;29;19954;-60
2022/08/23 01:55:26;;;;;;;;;;;;;;;25.62;53.00;99668.25;2034440;29;19919;-60
2022/08/23 01:56:26;;;;;;;;;;;;;;;25.64;53.01;99665.28;2031870;29;20161;-60
2022/08/23 01:57:27;;;;;;;;;;;;;;;25.63;52.88;99661.69;2035760;29;20408;-60
2022/08/23 01:58:30;;;;;;;;;;;;;;;25.63;52.86;99672.72;2034714;29;19918;-60
2022/08/23 01:59:30;;;;;;;;;;;;;;;25.61;52.85;99666.56;2035235;29;19950;-60
2022/08/23 02:00:32;;;;;;;;;;;;;;;25.63;53.13;99664.44;2035514;29;20701;-58
2022/08/23 02:01:33;;;;;;;;;;;;;;;25.62;52.95;99668.25;2038557;29;19926;-60
2022/08/23 02:02:33;;;;;;;;;;;;;;;25.62;53.09;99659.97;2042593;29;19919;-60
2022/08/23 02:03:36;;;;;;;;;;;;;;;25.62;53.02;99668.25;2034059;29;20581;-60
2022/08/23 02:04:36;;;;;;;;;;;;;;;25.63;53.03;99663.59;2033021;29;19911;-59
2022/08/23 02:05:37;;;;;;;;;;;;;;;25.62;53.15;99668.25;2035028;29;19918;-60
2022/08/23 02:06:37;;;;;;;;;;;;;;;25.63;52.86;99664.44;2031950;29;20017;-60
2022/08/23 02:07:38;;;;;;;;;;;;;;;25.61;53.22;99661.03;2027578;29;19923;-59
2022/08/23 02:09:57;;;;;;;;;;;;;;;25.61;52.94;99666.56;2033430;29;20420;-60
2022/08/23 02:10:58;;;;;;;;;;;;;;;25.60;52.98;99673.13;2035284;29;19919;-60
2022/08/23 02:11:58;;;;;;;;;;;;;;;25.60;53.27;99675.91;2026590;29;20104;-60
2022/08/23 02:12:58;;;;;;;;;;;;;;;25.61;53.21;99672.06;2024949;29;19977;-60
2022/08/23 02:14:00;;;;;;;;;;;;;;;25.60;53.05;99673.13;2027175;29;20385;-60
2022/08/23 02:15:01;;;;;;;;;;;;;;;25.59;53.20;99668.66;2034383;29;19914;-60
2022/08/23 02:16:01;;;;;;;;;;;;;;;25.59;52.91;99676.09;2034402;29;19970;-60
2022/08/23 02:17:02;;;;;;;;;;;;;;;25.60;53.15;99667.63;2026828;29;19919;-60
2022/08/23 02:18:03;;;;;;;;;;;;;;;25.60;53.15;99669.50;2023791;29;19919;-60
2022/08/23 02:19:04;;;;;;;;;;;;;;;25.59;52.98;99667.81;2018091;29;19916;-60
2022/08/23 02:20:05;;;;;;;;;;;;;;;25.59;53.11;99663.13;2023914;29;20055;-60
2022/08/23 02:21:05;;;;;;;;;;;;;;;25.59;53.02;99663.13;2040104;29;19999;-60
2022/08/23 02:22:07;;;;;;;;;;;;;;;25.59;53.20;99668.66;2039935;29;19942;-59
2022/08/23 02:23:07;;;;;;;;;;;;;;;25.59;52.90;99663.13;2034192;29;19918;-60
2022/08/23 02:24:11;;;;;;;;;;;;;;;25.60;52.88;99670.38;2033863;29;19958;-60
2022/08/23 02:25:12;;;;;;;;;;;;;;;25.60;53.15;99663.97;2034628;29;19919;-60
2022/08/23 02:26:12;;;;;;;;;;;;;;;25.59;53.12;99668.66;2035545;29;20424;-60
2022/08/23 02:27:14;;;;;;;;;;;;;;;25.59;52.92;99668.66;2033956;29;19918;-60
2022/08/23 02:28:14;;;;;;;;;;;;;;;25.60;53.15;99667.63;2036070;29;19919;-60
2022/08/23 02:29:16;;;;;;;;;;;;;;;25.60;52.82;99669.50;2017809;29;19923;-60
2022/08/23 02:30:16;;;;;;;;;;;;;;;25.60;53.03;99669.50;2019036;29;20182;-60
2022/08/23 02:31:17;;;;;;;;;;;;;;;25.60;53.00;99670.38;2029772;29;20665;-60
2022/08/23 02:32:17;;;;;;;;;;;;;;;25.59;52.81;99668.66;2032080;29;19919;-60
2022/08/23 02:33:17;;;;;;;;;;;;;;;25.60;53.13;99664.84;2028562;29;19919;-61
2022/08/23 02:34:18;;;;;;;;;;;;;;;25.60;52.87;99667.63;2034812;29;20566;-60
2022/08/23 02:35:19;;;;;;;;;;;;;;;25.60;52.90;99667.63;2030805;29;19927;-60
2022/08/23 02:36:19;;;;;;;;;;;;;;;25.60;52.74;99669.50;2027909;29;19915;-60
2022/08/23 02:37:19;;;;;;;;;;;;;;;25.60;52.81;99670.38;2033087;29;19926;-60
2022/08/23 02:38:19;;;;;;;;;;;;;;;25.60;52.79;99673.13;2033051;29;19934;-60
2022/08/23 02:39:20;;;;;;;;;;;;;;;25.60;52.80;99664.84;2029318;29;20617;-60
2022/08/23 02:40:21;;;;;;;;;;;;;;;25.60;52.70;99669.50;2034694;29;19950;-60
2022/08/23 02:41:21;;;;;;;;;;;;;;;25.60;52.75;99664.84;2026403;29;19990;-60
2022/08/23 02:42:22;;;;;;;;;;;;;;;25.60;52.80;99663.97;2020273;29;19931;-60
2022/08/23 02:43:22;;;;;;;;;;;;;;;25.60;52.88;99663.97;2030499;29;19953;-60
2022/08/23 02:44:23;;;;;;;;;;;;;;;25.60;52.90;99663.97;2030074;29;19923;-60
2022/08/23 02:45:23;;;;;;;;;;;;;;;25.59;52.75;99663.13;2034852;29;20244;-58
2022/08/23 02:46:24;;;;;;;;;;;;;;;25.59;52.90;99663.13;2034289;29;19913;-62
2022/08/23 02:47:24;;;;;;;;;;;;;;;25.60;52.85;99667.63;2029944;29;19949;-61
2022/08/23 02:48:25;;;;;;;;;;;;;;;25.60;52.86;99659.34;2035218;29;20744;-60
2022/08/23 02:49:28;;;;;;;;;;;;;;;25.60;52.87;99673.13;2034328;29;20469;-59
2022/08/23 02:50:28;;;;;;;;;;;;;;;25.59;52.87;99668.66;2029175;29;19990;-60
2022/08/23 02:51:28;;;;;;;;;;;;;;;25.59;52.89;99667.81;2034848;29;19930;-60
2022/08/23 02:52:28;;;;;;;;;;;;;;;25.59;52.94;99665.06;2030485;29;19919;-60
2022/08/23 02:53:29;;;;;;;;;;;;;;;25.59;52.99;99663.13;2034445;29;19915;-60
2022/08/23 02:54:29;;;;;;;;;;;;;;;25.59;52.98;99659.53;2034949;29;19915;-60
2022/08/23 02:55:30;;;;;;;;;;;;;;;25.58;53.02;99666.97;2042743;28;19914;-60
2022/08/23 02:56:31;;;;;;;;;;;;;;;25.58;53.14;99655.94;2039784;29;19957;-60
2022/08/23 02:57:32;;;;;;;;;;;;;;;25.59;53.08;99662.28;2034354;29;19968;-60
2022/08/23 02:58:32;;;;;;;;;;;;;;;25.57;53.07;99654.19;2034647;29;19918;-60
2022/08/23 02:59:32;;;;;;;;;;;;;;;25.57;53.05;99654.19;2032952;29;20439;-60
2022/08/23 03:00:33;;;;;;;;;;;;;;;25.57;53.07;99651.44;2035651;29;20041;-60
2022/08/23 03:01:35;;;;;;;;;;;;;;;25.56;53.07;99649.75;2041865;29;19918;-60
2022/08/23 03:02:36;;;;;;;;;;;;;;;25.57;53.06;99648.69;2039915;29;19918;-59
2022/08/23 03:03:37;;;;;;;;;;;;;;;25.56;52.86;99655.28;2034937;29;20258;-60
2022/08/23 03:04:37;;;;;;;;;;;;;;;25.57;52.76;99654.19;2022862;29;19951;-59
2022/08/23 03:05:37;;;;;;;;;;;;;;;25.57;53.00;99653.34;2018173;29;19919;-59
2022/08/23 03:06:37;;;;;;;;;;;;;;;25.56;52.96;99652.50;2026053;29;20551;-60
2022/08/23 03:07:38;;;;;;;;;;;;;;;25.56;52.97;99657.19;2025372;29;19923;-60
2022/08/23 03:08:38;;;;;;;;;;;;;;;25.56;52.75;99652.50;2027614;29;19985;-60
2022/08/23 03:09:39;;;;;;;;;;;;;;;25.56;52.74;99657.19;2028299;29;19919;-60
2022/08/23 03:10:43;;;;;;;;;;;;;;;25.57;52.73;99659.72;2028466;29;20421;-59
2022/08/23 03:11:48;;;;;;;;;;;;;;;25.57;52.75;99665.25;2041303;29;19925;-60
2022/08/23 03:12:48;;;;;;;;;;;;;;;25.57;52.91;99659.72;2038412;29;19918;-61
2022/08/23 03:13:49;;;;;;;;;;;;;;;25.57;52.75;99665.25;2040649;29;19915;-60
2022/08/23 03:14:50;;;;;;;;;;;;;;;25.57;52.81;99661.63;2032110;29;19919;-59
2022/08/23 03:15:51;;;;;;;;;;;;;;;25.57;52.73;99665.25;2037159;29;20026;-60
2022/08/23 03:16:51;;;;;;;;;;;;;;;25.58;52.58;99660.59;2023828;29;20235;-60
2022/08/23 03:17:52;;;;;;;;;;;;;;;25.57;52.82;99662.47;2020014;29;19920;-59
2022/08/23 03:18:52;;;;;;;;;;;;;;;25.58;52.79;99666.97;2033823;29;19925;-60
2022/08/23 03:19:53;;;;;;;;;;;;;;;25.57;52.80;99665.25;2035224;29;20119;-61
2022/08/23 03:20:53;;;;;;;;;;;;;;;25.58;52.88;99672.47;2037727;29;19930;-60
2022/08/23 03:21:53;;;;;;;;;;;;;;;25.58;52.61;99666.13;2036722;29;19974;-60
2022/08/23 03:22:54;;;;;;;;;;;;;;;25.58;52.61;99672.47;2027887;29;19919;-59
2022/08/23 03:23:54;;;;;;;;;;;;;;;25.58;52.89;99672.47;2034893;29;19915;-60
2022/08/23 03:24:55;;;;;;;;;;;;;;;25.57;52.54;99667.16;2029485;29;19919;-60
2022/08/23 03:25:56;;;;;;;;;;;;;;;25.58;52.57;99663.34;2025492;29;19919;-60
2022/08/23 03:26:57;;;;;;;;;;;;;;;25.58;52.80;99666.97;2025876;29;19966;-60
2022/08/23 03:28:02;;;;;;;;;;;;;;;25.57;52.73;99665.25;2040180;29;19918;-60
2022/08/23 03:29:02;;;;;;;;;;;;;;;25.57;52.83;99665.25;2030862;29;19919;-60
2022/08/23 03:30:04;;;;;;;;;;;;;;;25.57;52.80;99665.25;2032270;29;20274;-60
2022/08/23 03:31:05;;;;;;;;;;;;;;;25.58;52.71;99672.47;2033465;29;19982;-60
2022/08/23 03:32:06;;;;;;;;;;;;;;;25.57;52.82;99664.41;2026214;29;19915;-60
2022/08/23 03:33:06;;;;;;;;;;;;;;;25.56;52.60;99669.06;2025720;29;19923;-60
2022/08/23 03:34:07;;;;;;;;;;;;;;;25.56;52.67;99662.69;2034384;29;19919;-60
2022/08/23 03:35:08;;;;;;;;;;;;;;;25.57;52.66;99670.75;2034042;29;19919;-60
2022/08/23 03:36:10;;;;;;;;;;;;;;;25.56;52.78;99668.22;2034133;29;19918;-60
2022/08/23 03:37:10;;;;;;;;;;;;;;;25.56;52.69;99668.22;2026629;29;19998;-60
2022/08/23 03:38:12;;;;;;;;;;;;;;;25.55;52.84;99667.38;2031539;29;19926;-60
2022/08/23 03:39:13;;;;;;;;;;;;;;;25.56;52.98;99668.22;2027114;29;20309;-60
2022/08/23 03:40:13;;;;;;;;;;;;;;;25.55;52.70;99670.13;2026342;29;19926;-60
2022/08/23 03:41:13;;;;;;;;;;;;;;;25.55;52.78;99669.25;2025026;29;19927;-60
2022/08/23 03:42:14;;;;;;;;;;;;;;;25.55;53.04;99667.38;2018534;29;19912;-60
2022/08/23 03:43:14;;;;;;;;;;;;;;;25.54;52.91;99671.16;2031870;29;19927;-60
2022/08/23 03:44:15;;;;;;;;;;;;;;;25.55;52.74;99672.91;2030295;29;20090;-59
2022/08/23 03:45:15;;;;;;;;;;;;;;;25.55;52.67;99672.03;2025997;29;19915;-60
2022/08/23 03:46:22;;;;;;;;;;;;;;;25.54;52.78;99671.16;2033864;29;19919;-59
2022/08/23 03:47:22;;;;;;;;;;;;;;;25.54;52.69;99671.16;2034074;29;20428;-60
2022/08/23 03:48:23;;;;;;;;;;;;;;;25.54;52.68;99670.31;2035141;29;19996;-59
2022/08/23 03:49:24;;;;;;;;;;;;;;;25.53;52.76;99663.09;2032885;29;19918;-61
2022/08/23 03:50:24;;;;;;;;;;;;;;;25.54;52.67;99671.16;2034236;29;19907;-60
2022/08/23 03:51:26;;;;;;;;;;;;;;;25.54;52.65;99673.94;2034120;29;20137;-60
2022/08/23 03:52:26;;;;;;;;;;;;;;;25.53;52.89;99669.47;2035871;29;19910;-60
2022/08/23 03:53:27;;;;;;;;;;;;;;;25.54;52.72;99676.69;2034815;29;20447;-59
2022/08/23 03:54:28;;;;;;;;;;;;;;;25.55;52.77;99677.53;2034347;29;19958;-60
2022/08/23 03:55:29;;;;;;;;;;;;;;;25.55;52.57;99672.03;2041471;29;20294;-60
2022/08/23 03:56:31;;;;;;;;;;;;;;;25.54;52.65;99676.69;2034838;29;19957;-60
2022/08/23 03:57:31;;;;;;;;;;;;;;;25.54;52.72;99673.09;2037833;29;19972;-60
2022/08/23 03:58:31;;;;;;;;;;;;;;;25.54;52.76;99671.16;2024813;29;19998;-60
2022/08/23 03:59:33;;;;;;;;;;;;;;;25.55;52.66;99672.91;2025302;29;19925;-60
2022/08/23 04:00:34;;;;;;;;;;;;;;;25.55;52.70;99672.03;2035524;29;19918;-60
2022/08/23 04:01:35;;;;;;;;;;;;;;;25.55;52.83;99670.13;2032801;29;19977;-60
2022/08/23 04:02:36;;;;;;;;;;;;;;;25.55;52.54;99672.03;2034556;29;20126;-60
2022/08/23 04:03:36;;;;;;;;;;;;;;;25.54;52.56;99665.66;2034751;29;19911;-60
2022/08/23 04:04:36;;;;;;;;;;;;;;;25.54;52.75;99676.69;2023382;29;20486;-60
2022/08/23 04:05:37;;;;;;;;;;;;;;;25.54;52.68;99671.16;2018787;29;20018;-59
2022/08/23 04:06:37;;;;;;;;;;;;;;;25.55;52.56;99678.41;2028843;29;19923;-60
2022/08/23 04:07:38;;;;;;;;;;;;;;;25.55;52.66;99675.66;2021181;29;19930;-60
2022/08/23 04:08:38;;;;;;;;;;;;;;;25.54;52.48;99670.31;2019914;29;20393;-60
2022/08/23 04:09:39;;;;;;;;;;;;;;;25.54;52.57;99673.94;2035366;29;20137;-60
2022/08/23 04:10:39;;;;;;;;;;;;;;;25.54;52.78;99676.69;2034714;29;20120;-60
2022/08/23 04:11:40;;;;;;;;;;;;;;;25.54;52.75;99676.69;2036313;29;20211;-60
2022/08/23 04:12:41;;;;;;;;;;;;;;;25.54;52.54;99671.16;2036276;29;19925;-60
2022/08/23 04:13:42;;;;;;;;;;;;;;;25.54;52.48;99671.16;2036989;29;20670;-60
2022/08/23 04:14:43;;;;;;;;;;;;;;;25.54;52.65;99679.44;2036711;29;19919;-60
2022/08/23 04:15:44;;;;;;;;;;;;;;;25.54;52.78;99675.84;2036040;29;20005;-60
2022/08/23 04:16:44;;;;;;;;;;;;;;;25.54;52.58;99673.94;2035366;29;19918;-59
2022/08/23 04:17:44;;;;;;;;;;;;;;;25.53;52.74;99669.47;2036687;29;19969;-60
2022/08/23 04:18:45;;;;;;;;;;;;;;;25.54;52.76;99676.69;2035951;29;19919;-60
2022/08/23 04:19:45;;;;;;;;;;;;;;;25.53;52.69;99672.25;2035148;29;19978;-60
2022/08/23 04:20:46;;;;;;;;;;;;;;;25.53;52.80;99675.00;2035066;29;19977;-60
2022/08/23 04:21:49;;;;;;;;;;;;;;;25.53;52.59;99675.00;2024465;29;19947;-60
2022/08/23 04:22:53;;;;;;;;;;;;;;;25.51;52.85;99674.34;2021088;29;20046;-59
2022/08/23 04:23:53;;;;;;;;;;;;;;;25.51;52.64;99677.09;2027916;29;19922;-60
2022/08/23 04:24:54;;;;;;;;;;;;;;;25.51;52.64;99677.09;2031232;29;20736;-60
2022/08/23 04:25:55;;;;;;;;;;;;;;;25.51;52.66;99671.59;2028759;29;19915;-60
2022/08/23 04:26:55;;;;;;;;;;;;;;;25.51;52.92;99677.09;2029323;29;19934;-60
2022/08/23 04:27:55;;;;;;;;;;;;;;;25.51;53.03;99677.09;2030336;29;19923;-60
2022/08/23 04:28:56;;;;;;;;;;;;;;;25.50;52.87;99675.38;2035807;29;20676;-60
2022/08/23 04:29:57;;;;;;;;;;;;;;;25.50;52.67;99680.91;2035491;29;19919;-60
2022/08/23 04:30:59;;;;;;;;;;;;;;;25.50;52.66;99678.13;2035728;29;19922;-60
2022/08/23 04:31:59;;;;;;;;;;;;;;;25.51;52.90;99681.78;2028518;29;19971;-60
2022/08/23 04:33:00;;;;;;;;;;;;;;;25.51;52.64;99687.28;2032123;29;20435;-60
2022/08/23 04:34:01;;;;;;;;;;;;;;;25.51;52.80;99685.38;2035603;29;19919;-60
2022/08/23 04:35:01;;;;;;;;;;;;;;;25.51;52.74;99682.63;2030561;29;20423;-59
2022/08/23 04:36:03;;;;;;;;;;;;;;;25.51;52.63;99685.38;2032272;29;19919;-60
2022/08/23 04:37:03;;;;;;;;;;;;;;;25.51;52.79;99693.66;2027023;29;19954;-60
2022/08/23 04:38:03;;;;;;;;;;;;;;;25.51;52.49;99690.91;2020635;29;19967;-60
2022/08/23 04:39:04;;;;;;;;;;;;;;;25.52;52.75;99694.50;2020773;29;20458;-59
2022/08/23 04:42:43;;;;;;;;;;;;;;;25.52;52.49;99694.50;2031053;29;19954;-59
2022/08/23 04:43:43;;;;;;;;;;;;;;;25.53;52.43;99701.72;2028304;29;19931;-60
2022/08/23 04:44:43;;;;;;;;;;;;;;;25.51;52.72;99693.66;2039246;29;19927;-60
2022/08/23 04:45:44;;;;;;;;;;;;;;;25.52;52.44;99691.75;2040636;29;19966;-60
2022/08/23 04:46:45;;;;;;;;;;;;;;;25.53;52.66;99696.19;2028168;29;20055;-60
2022/08/23 04:47:45;;;;;;;;;;;;;;;25.53;52.70;99701.72;2034222;29;20377;-59
2022/08/23 04:48:46;;;;;;;;;;;;;;;25.51;52.58;99696.41;2036608;29;20002;-60
2022/08/23 04:49:46;;;;;;;;;;;;;;;25.52;52.42;99697.28;2036311;29;19911;-60
2022/08/23 04:50:46;;;;;;;;;;;;;;;25.51;52.44;99699.19;2034576;29;19961;-60
2022/08/23 04:51:47;;;;;;;;;;;;;;;25.51;52.63;99699.19;2035508;29;19982;-60
2022/08/23 04:52:47;;;;;;;;;;;;;;;25.51;52.46;99699.19;2038810;29;19957;-60
2022/08/23 04:53:47;;;;;;;;;;;;;;;25.51;52.63;99698.34;2041311;29;19915;-59
2022/08/23 04:54:48;;;;;;;;;;;;;;;25.52;52.66;99700.03;2037737;29;19930;-60
2022/08/23 04:55:51;;;;;;;;;;;;;;;25.51;52.40;99699.19;2032928;29;19923;-59
2022/08/23 04:56:51;;;;;;;;;;;;;;;25.51;52.33;99696.41;2027721;29;19998;-60
2022/08/23 04:57:51;;;;;;;;;;;;;;;25.53;52.65;99698.97;2034518;29;20225;-60
2022/08/23 04:58:52;;;;;;;;;;;;;;;25.51;52.55;99704.69;2036485;29;19957;-60
2022/08/23 04:59:52;;;;;;;;;;;;;;;25.51;52.45;99703.84;2026404;29;20380;-59
2022/08/23 05:00:53;;;;;;;;;;;;;;;25.50;52.60;99702.97;2026012;29;19926;-60
2022/08/23 05:01:53;;;;;;;;;;;;;;;25.51;52.55;99704.69;2034897;29;20030;-60
2022/08/23 05:02:54;;;;;;;;;;;;;;;25.50;52.50;99702.97;2035813;29;19973;-60
2022/08/23 05:03:54;;;;;;;;;;;;;;;25.50;52.71;99697.47;2034837;29;19925;-60
2022/08/23 05:04:55;;;;;;;;;;;;;;;25.50;52.73;99699.38;2034499;29;19915;-60
2022/08/23 05:05:56;;;;;;;;;;;;;;;25.50;52.75;99708.50;2024865;29;19926;-60
2022/08/23 05:06:57;;;;;;;;;;;;;;;25.49;52.60;99701.28;2019120;29;19919;-60
2022/08/23 05:07:58;;;;;;;;;;;;;;;25.50;52.77;99708.50;2029294;29;19919;-60
2022/08/23 05:09:00;;;;;;;;;;;;;;;25.49;52.68;99701.28;2029265;29;19986;-60
2022/08/23 05:10:00;;;;;;;;;;;;;;;25.49;52.67;99704.03;2028135;29;19919;-60
2022/08/23 05:11:01;;;;;;;;;;;;;;;25.49;52.74;99708.72;2029161;29;20392;-60
2022/08/23 05:12:02;;;;;;;;;;;;;;;25.49;52.89;99700.44;2028525;29;19919;-60
2022/08/23 05:13:02;;;;;;;;;;;;;;;25.49;52.91;99712.31;2028717;29;19919;-60
2022/08/23 05:14:03;;;;;;;;;;;;;;;25.48;52.69;99707.88;2029867;29;19915;-60
2022/08/23 05:15:03;;;;;;;;;;;;;;;25.48;52.88;99709.75;2033353;29;19945;-60
2022/08/23 05:16:04;;;;;;;;;;;;;;;25.49;52.62;99705.97;2029362;29;19916;-60
2022/08/23 05:17:04;;;;;;;;;;;;;;;25.49;52.89;99706.81;2027447;29;19973;-60
2022/08/23 05:18:04;;;;;;;;;;;;;;;25.49;52.85;99705.97;2039023;29;20029;-61
2022/08/23 05:19:05;;;;;;;;;;;;;;;25.49;52.79;99705.97;2036041;29;19925;-60
2022/08/23 05:20:06;;;;;;;;;;;;;;;25.48;52.54;99710.63;2034621;29;19915;-59
2022/08/23 05:21:07;;;;;;;;;;;;;;;25.49;52.74;99706.81;2034608;29;20356;-60
2022/08/23 05:22:07;;;;;;;;;;;;;;;25.49;52.76;99709.56;2036859;29;19930;-59
2022/08/23 05:23:07;;;;;;;;;;;;;;;25.49;52.46;99712.31;2037794;29;20414;-60
2022/08/23 05:24:08;;;;;;;;;;;;;;;25.49;52.44;99708.72;2039494;29;20518;-60
2022/08/23 05:25:08;;;;;;;;;;;;;;;25.49;52.42;99704.03;2034747;29;20403;-60
2022/08/23 05:26:10;;;;;;;;;;;;;;;25.49;52.57;99711.47;2034734;29;19970;-60
2022/08/23 05:27:11;;;;;;;;;;;;;;;25.48;52.42;99713.38;2027067;29;19970;-60
2022/08/23 05:28:11;;;;;;;;;;;;;;;25.49;52.45;99705.97;2033135;29;20326;-59